sensor_id;sensor_type;location;lat;lon;timestamp;temperature;humidity
14521;DHT22;7347;50.844;4.490;2023-03-21T08:58:50;11.90;99.90
14521;DHT22;7347;50.844;4.490;2023-03-21T09:01:16;12.00;99.90
14521;DHT22;7347;50.844;4.490;2023-03-21T09:03:43;12.10;99.90
14521;DHT22;7347;50.844;4.490;2023-03-21T09:06:10;12.20;99.90
14521;DHT22;7347;50.844;4.490;2023-03-21T09:08:39;12.40;99.90
14521;DHT22;7347;50.844;4.490;2023-03-21T09:11:06;12.70;99.90
14521;DHT22;7347;50.844;4.490;2023-03-21T09:13:33;13.00;99.90
14521;DHT22;7347;50.844;4.490;2023-03-21T09:16:01;13.10;99.90
14521;DHT22;7347;50.844;4.490;2023-03-21T09:18:29;13.30;99.90
14521;DHT22;7347;50.844;4.490;2023-03-21T09:21:10;13.50;99.90
14521;DHT22;7347;50.844;4.490;2023-03-21T09:23:39;13.30;99.90
14521;DHT22;7347;50.844;4.490;2023-03-21T09:26:06;13.20;99.90
14521;DHT22;7347;50.844;4.490;2023-03-21T09:28:34;13.10;99.90
14521;DHT22;7347;50.844;4.490;2023-03-21T09:31:04;13.10;99.90
14521;DHT22;7347;50.844;4.490;2023-03-21T09:33:33;12.90;99.90
14521;DHT22;7347;50.844;4.490;2023-03-21T09:36:00;12.90;99.90
14521;DHT22;7347;50.844;4.490;2023-03-21T09:38:31;12.80;99.90
14521;DHT22;7347;50.844;4.490;2023-03-21T09:41:10;12.90;99.90
14521;DHT22;7347;50.844;4.490;2023-03-21T09:43:52;12.80;99.90
14521;DHT22;7347;50.844;4.490;2023-03-21T09:46:31;12.80;99.90
14521;DHT22;7347;50.844;4.490;2023-03-21T09:49:01;12.60;99.90
14521;DHT22;7347;50.844;4.490;2023-03-21T09:51:34;12.70;99.90
14521;DHT22;7347;50.844;4.490;2023-03-21T09:54:05;12.80;99.90
14521;DHT22;7347;50.844;4.490;2023-03-21T09:56:35;12.90;99.90
14521;DHT22;7347;50.844;4.490;2023-03-21T09:59:03;13.10;99.90
14521;DHT22;7347;50.844;4.490;2023-03-21T10:01:36;13.50;99.90
14521;DHT22;7347;50.844;4.490;2023-03-21T10:04:11;13.50;99.90
14521;DHT22;7347;50.844;4.490;2023-03-21T10:06:40;13.60;99.90
14521;DHT22;7347;50.844;4.490;2023-03-21T10:09:13;13.60;99.90
14521;DHT22;7347;50.844;4.490;2023-03-21T10:11:43;13.60;99.90
14521;DHT22;7347;50.844;4.490;2023-03-21T10:14:16;13.70;99.90
14521;DHT22;7347;50.844;4.490;2023-03-21T10:16:48;13.70;99.90
14521;DHT22;7347;50.844;4.490;2023-03-21T10:19:18;13.80;99.90
14521;DHT22;7347;50.844;4.490;2023-03-21T10:21:47;14.00;99.90
14521;DHT22;7347;50.844;4.490;2023-03-21T10:24:17;13.90;99.90
14521;DHT22;7347;50.844;4.490;2023-03-21T10:26:46;13.90;99.90
14521;DHT22;7347;50.844;4.490;2023-03-21T10:29:14;13.90;99.90
14521;DHT22;7347;50.844;4.490;2023-03-21T10:31:45;13.80;99.90
14521;DHT22;7347;50.844;4.490;2023-03-21T10:34:15;14.00;99.90
14521;DHT22;7347;50.844;4.490;2023-03-21T10:36:44;14.00;99.90
14521;DHT22;7347;50.844;4.490;2023-03-21T10:39:20;14.10;99.90
14521;DHT22;7347;50.844;4.490;2023-03-21T10:41:47;13.90;99.90
14521;DHT22;7347;50.844;4.490;2023-03-21T10:44:16;14.00;99.90
14521;DHT22;7347;50.844;4.490;2023-03-21T10:46:51;14.10;99.90
14521;DHT22;7347;50.844;4.490;2023-03-21T10:49:18;14.30;99.90
14521;DHT22;7347;50.844;4.490;2023-03-21T10:51:47;14.30;99.90
14521;DHT22;7347;50.844;4.490;2023-03-21T10:54:18;14.40;99.90
14521;DHT22;7347;50.844;4.490;2023-03-21T10:56:52;14.70;99.90
14521;DHT22;7347;50.844;4.490;2023-03-21T10:59:21;14.90;99.90
14521;DHT22;7347;50.844;4.490;2023-03-21T11:01:51;15.10;99.90
14521;DHT22;7347;50.844;4.490;2023-03-21T11:04:22;15.00;99.90
14521;DHT22;7347;50.844;4.490;2023-03-21T11:06:52;15.00;99.90
14521;DHT22;7347;50.844;4.490;2023-03-21T11:09:21;15.30;99.90
14521;DHT22;7347;50.844;4.490;2023-03-21T11:11:52;15.10;99.90
14521;DHT22;7347;50.844;4.490;2023-03-21T11:14:40;15.00;99.90
14521;DHT22;7347;50.844;4.490;2023-03-21T11:17:20;15.10;99.90
14521;DHT22;7347;50.844;4.490;2023-03-21T11:19:48;15.10;99.90
14521;DHT22;7347;50.844;4.490;2023-03-21T11:22:17;15.20;99.90
14521;DHT22;7347;50.844;4.490;2023-03-21T11:24:49;15.40;99.90
14521;DHT22;7347;50.844;4.490;2023-03-21T11:27:16;15.20;99.90
14521;DHT22;7347;50.844;4.490;2023-03-21T11:29:46;14.90;99.90
14521;DHT22;7347;50.844;4.490;2023-03-21T11:32:21;14.90;99.90
14521;DHT22;7347;50.844;4.490;2023-03-21T11:34:50;14.90;99.90
14521;DHT22;7347;50.844;4.490;2023-03-21T11:37:24;14.80;99.90
14521;DHT22;7347;50.844;4.490;2023-03-21T11:39:55;14.50;99.90
14521;DHT22;7347;50.844;4.490;2023-03-21T11:42:27;14.80;99.90
14521;DHT22;7347;50.844;4.490;2023-03-21T11:45:08;15.20;99.90
14521;DHT22;7347;50.844;4.490;2023-03-21T11:47:38;15.50;99.90
14521;DHT22;7347;50.844;4.490;2023-03-21T11:50:18;16.00;99.90
14521;DHT22;7347;50.844;4.490;2023-03-21T11:53:02;15.80;99.90
14521;DHT22;7347;50.844;4.490;2023-03-21T11:55:37;15.70;99.90
14521;DHT22;7347;50.844;4.490;2023-03-21T11:58:28;15.60;99.90
14521;DHT22;7347;50.844;4.490;2023-03-21T12:01:04;15.40;99.90
14521;DHT22;7347;50.844;4.490;2023-03-21T12:03:56;15.30;99.90
14521;DHT22;7347;50.844;4.490;2023-03-21T12:06:29;15.10;99.90
14521;DHT22;7347;50.844;4.490;2023-03-21T12:09:18;15.00;99.90
14521;DHT22;7347;50.844;4.490;2023-03-21T12:12:02;14.90;99.90
14521;DHT22;7347;50.844;4.490;2023-03-21T12:14:40;15.10;99.90
14521;DHT22;7347;50.844;4.490;2023-03-21T12:17:16;15.20;99.90
14521;DHT22;7347;50.844;4.490;2023-03-21T12:20:02;15.20;99.90
14521;DHT22;7347;50.844;4.490;2023-03-21T12:22:41;15.10;99.90
14521;DHT22;7347;50.844;4.490;2023-03-21T12:25:14;15.10;99.90
14521;DHT22;7347;50.844;4.490;2023-03-21T12:27:48;15.20;99.90
14521;DHT22;7347;50.844;4.490;2023-03-21T12:30:29;15.30;99.90
14521;DHT22;7347;50.844;4.490;2023-03-21T12:33:11;15.60;99.90
14521;DHT22;7347;50.844;4.490;2023-03-21T12:35:58;15.80;99.90
14521;DHT22;7347;50.844;4.490;2023-03-21T12:38:35;16.10;99.90
14521;DHT22;7347;50.844;4.490;2023-03-21T12:41:16;16.50;99.90
14521;DHT22;7347;50.844;4.490;2023-03-21T12:43:49;16.30;99.90
14521;DHT22;7347;50.844;4.490;2023-03-21T12:46:23;16.10;99.90
14521;DHT22;7347;50.844;4.490;2023-03-21T12:48:55;16.00;99.90
14521;DHT22;7347;50.844;4.490;2023-03-21T12:51:28;15.90;99.90
14521;DHT22;7347;50.844;4.490;2023-03-21T12:54:02;16.00;99.90
14521;DHT22;7347;50.844;4.490;2023-03-21T12:56:31;16.20;99.90
14521;DHT22;7347;50.844;4.490;2023-03-21T12:59:05;16.10;99.90
14521;DHT22;7347;50.844;4.490;2023-03-21T13:01:36;16.10;99.90
14521;DHT22;7347;50.844;4.490;2023-03-21T13:04:29;16.20;99.90
14521;DHT22;7347;50.844;4.490;2023-03-21T13:07:00;16.30;99.90
14521;DHT22;7347;50.844;4.490;2023-03-21T13:09:32;16.30;99.90
14521;DHT22;7347;50.844;4.490;2023-03-21T13:12:04;16.40;99.90
14521;DHT22;7347;50.844;4.490;2023-03-21T13:14:36;16.40;99.90
14521;DHT22;7347;50.844;4.490;2023-03-21T13:17:09;16.40;99.90
14521;DHT22;7347;50.844;4.490;2023-03-21T13:19:41;16.30;99.90
14521;DHT22;7347;50.844;4.490;2023-03-21T13:22:17;16.20;99.90
14521;DHT22;7347;50.844;4.490;2023-03-21T13:24:48;16.10;99.90
14521;DHT22;7347;50.844;4.490;2023-03-21T13:27:20;16.20;99.90
14521;DHT22;7347;50.844;4.490;2023-03-21T13:29:53;16.40;99.90
14521;DHT22;7347;50.844;4.490;2023-03-21T13:32:28;16.50;99.90
14521;DHT22;7347;50.844;4.490;2023-03-21T13:34:58;16.60;99.90
14521;DHT22;7347;50.844;4.490;2023-03-21T13:37:29;16.20;99.90
14521;DHT22;7347;50.844;4.490;2023-03-21T13:40:00;16.00;99.90
14521;DHT22;7347;50.844;4.490;2023-03-21T13:42:34;15.90;99.90
14521;DHT22;7347;50.844;4.490;2023-03-21T13:45:06;15.90;99.90
14521;DHT22;7347;50.844;4.490;2023-03-21T13:47:40;15.80;99.90
14521;DHT22;7347;50.844;4.490;2023-03-21T13:50:26;15.60;99.90
14521;DHT22;7347;50.844;4.490;2023-03-21T13:53:24;15.60;99.90
14521;DHT22;7347;50.844;4.490;2023-03-21T13:56:23;15.50;99.90
14521;DHT22;7347;50.844;4.490;2023-03-21T13:58:57;15.50;99.90
14521;DHT22;7347;50.844;4.490;2023-03-21T14:01:29;15.90;99.90
14521;DHT22;7347;50.844;4.490;2023-03-21T14:04:06;15.90;99.90
14521;DHT22;7347;50.844;4.490;2023-03-21T14:06:44;15.90;99.90
14521;DHT22;7347;50.844;4.490;2023-03-21T14:09:20;16.10;99.90
14521;DHT22;7347;50.844;4.490;2023-03-21T14:11:49;16.00;99.90
14521;DHT22;7347;50.844;4.490;2023-03-21T14:14:19;15.90;99.90
14521;DHT22;7347;50.844;4.490;2023-03-21T14:16:46;15.90;99.90
14521;DHT22;7347;50.844;4.490;2023-03-21T14:19:13;15.80;99.90
14521;DHT22;7347;50.844;4.490;2023-03-21T14:21:47;15.90;99.90
14521;DHT22;7347;50.844;4.490;2023-03-21T14:24:18;15.80;99.90
14521;DHT22;7347;50.844;4.490;2023-03-21T14:26:47;15.90;99.90
14521;DHT22;7347;50.844;4.490;2023-03-21T14:29:19;16.00;99.90
14521;DHT22;7347;50.844;4.490;2023-03-21T14:31:47;16.00;99.90
14521;DHT22;7347;50.844;4.490;2023-03-21T14:34:15;15.80;99.90
14521;DHT22;7347;50.844;4.490;2023-03-21T14:36:43;15.60;99.90
14521;DHT22;7347;50.844;4.490;2023-03-21T14:39:17;15.40;99.90
14521;DHT22;7347;50.844;4.490;2023-03-21T14:41:47;15.20;99.90
14521;DHT22;7347;50.844;4.490;2023-03-21T14:44:18;15.10;99.90
14521;DHT22;7347;50.844;4.490;2023-03-21T14:46:50;15.20;99.90
14521;DHT22;7347;50.844;4.490;2023-03-21T14:49:20;15.00;99.90
14521;DHT22;7347;50.844;4.490;2023-03-21T14:51:49;15.00;99.90
14521;DHT22;7347;50.844;4.490;2023-03-21T14:54:18;15.00;99.90
14521;DHT22;7347;50.844;4.490;2023-03-21T14:56:48;15.10;99.90
14521;DHT22;7347;50.844;4.490;2023-03-21T14:59:17;15.10;99.90
14521;DHT22;7347;50.844;4.490;2023-03-21T15:01:47;15.10;99.90
14521;DHT22;7347;50.844;4.490;2023-03-21T15:04:16;14.90;99.90
14521;DHT22;7347;50.844;4.490;2023-03-21T15:06:51;15.00;99.90
14521;DHT22;7347;50.844;4.490;2023-03-21T15:09:22;14.90;99.90
14521;DHT22;7347;50.844;4.490;2023-03-21T15:11:50;15.00;99.90
14521;DHT22;7347;50.844;4.490;2023-03-21T15:14:22;15.20;99.90
14521;DHT22;7347;50.844;4.490;2023-03-21T15:16:50;15.20;99.90
14521;DHT22;7347;50.844;4.490;2023-03-21T15:19:22;15.20;99.90
14521;DHT22;7347;50.844;4.490;2023-03-21T15:21:53;14.90;99.90
14521;DHT22;7347;50.844;4.490;2023-03-21T15:24:26;15.00;99.90
14521;DHT22;7347;50.844;4.490;2023-03-21T15:26:58;14.90;99.90
14521;DHT22;7347;50.844;4.490;2023-03-21T15:29:25;14.90;99.90
14521;DHT22;7347;50.844;4.490;2023-03-21T15:31:52;14.90;99.90
14521;DHT22;7347;50.844;4.490;2023-03-21T15:34:21;14.60;99.90
14521;DHT22;7347;50.844;4.490;2023-03-21T15:36:49;14.50;99.90
14521;DHT22;7347;50.844;4.490;2023-03-21T15:39:20;14.30;99.90
14521;DHT22;7347;50.844;4.490;2023-03-21T15:42:02;14.20;99.90
14521;DHT22;7347;50.844;4.490;2023-03-21T15:44:29;14.20;99.90
14521;DHT22;7347;50.844;4.490;2023-03-21T15:46:56;14.40;99.90
14521;DHT22;7347;50.844;4.490;2023-03-21T15:49:26;14.40;99.90
14521;DHT22;7347;50.844;4.490;2023-03-21T15:51:57;14.30;99.90
14521;DHT22;7347;50.844;4.490;2023-03-21T15:54:26;14.20;99.90
14521;DHT22;7347;50.844;4.490;2023-03-21T15:56:55;14.30;99.90
14521;DHT22;7347;50.844;4.490;2023-03-21T15:59:26;14.20;99.90
14521;DHT22;7347;50.844;4.490;2023-03-21T16:01:54;14.10;99.90
14521;DHT22;7347;50.844;4.490;2023-03-21T16:04:20;14.00;99.90
14521;DHT22;7347;50.844;4.490;2023-03-21T16:06:55;13.90;99.90
14521;DHT22;7347;50.844;4.490;2023-03-21T16:09:23;13.80;99.90
14521;DHT22;7347;50.844;4.490;2023-03-21T16:11:51;13.70;99.90
14521;DHT22;7347;50.844;4.490;2023-03-21T16:14:18;13.50;99.90
14521;DHT22;7347;50.844;4.490;2023-03-21T16:16:48;13.40;99.90
14521;DHT22;7347;50.844;4.490;2023-03-21T16:19:15;13.40;99.90
14521;DHT22;7347;50.844;4.490;2023-03-21T16:21:43;13.40;99.90
14521;DHT22;7347;50.844;4.490;2023-03-21T16:24:11;13.40;99.90
14521;DHT22;7347;50.844;4.490;2023-03-21T16:26:41;13.40;99.90
14521;DHT22;7347;50.844;4.490;2023-03-21T16:29:12;13.30;99.90
14521;DHT22;7347;50.844;4.490;2023-03-21T16:31:40;13.40;99.90
14521;DHT22;7347;50.844;4.490;2023-03-21T16:34:09;13.40;99.90
14521;DHT22;7347;50.844;4.490;2023-03-21T16:36:38;13.50;99.90
14521;DHT22;7347;50.844;4.490;2023-03-21T16:39:16;13.40;99.90
14521;DHT22;7347;50.844;4.490;2023-03-21T16:41:43;13.40;99.90
14521;DHT22;7347;50.844;4.490;2023-03-21T16:44:10;13.50;99.90
14521;DHT22;7347;50.844;4.490;2023-03-21T16:46:37;13.50;99.90
14521;DHT22;7347;50.844;4.490;2023-03-21T16:49:04;13.50;99.90
14521;DHT22;7347;50.844;4.490;2023-03-21T16:51:34;13.50;99.90
14521;DHT22;7347;50.844;4.490;2023-03-21T16:54:01;13.50;99.90
14521;DHT22;7347;50.844;4.490;2023-03-21T16:56:32;13.50;99.90
14521;DHT22;7347;50.844;4.490;2023-03-21T16:59:00;13.50;99.90
14521;DHT22;7347;50.844;4.490;2023-03-21T17:01:26;13.50;99.90
14521;DHT22;7347;50.844;4.490;2023-03-21T17:03:55;13.50;99.90
14521;DHT22;7347;50.844;4.490;2023-03-21T17:06:23;13.40;99.90
14521;DHT22;7347;50.844;4.490;2023-03-21T17:08:53;13.40;99.90
14521;DHT22;7347;50.844;4.490;2023-03-21T17:11:23;13.20;99.90
14521;DHT22;7347;50.844;4.490;2023-03-21T17:13:51;13.20;99.90
14521;DHT22;7347;50.844;4.490;2023-03-21T17:16:20;13.20;99.90
14521;DHT22;7347;50.844;4.490;2023-03-21T17:18:48;13.20;99.90
14521;DHT22;7347;50.844;4.490;2023-03-21T17:21:16;13.30;99.90
14521;DHT22;7347;50.844;4.490;2023-03-21T17:23:44;13.30;99.90
14521;DHT22;7347;50.844;4.490;2023-03-21T17:26:20;13.30;99.90
14521;DHT22;7347;50.844;4.490;2023-03-21T17:28:47;13.30;99.90
14521;DHT22;7347;50.844;4.490;2023-03-21T17:31:15;13.40;99.90
14521;DHT22;7347;50.844;4.490;2023-03-21T17:33:42;13.30;99.90
14521;DHT22;7347;50.844;4.490;2023-03-21T17:36:12;13.20;99.90
14521;DHT22;7347;50.844;4.490;2023-03-21T17:38:40;13.20;99.90
14521;DHT22;7347;50.844;4.490;2023-03-21T17:41:11;13.20;99.90
14521;DHT22;7347;50.844;4.490;2023-03-21T17:43:38;13.20;99.90
14521;DHT22;7347;50.844;4.490;2023-03-21T17:46:06;13.20;99.90
14521;DHT22;7347;50.844;4.490;2023-03-21T17:48:35;13.10;99.90
14521;DHT22;7347;50.844;4.490;2023-03-21T17:51:02;13.10;99.90
14521;DHT22;7347;50.844;4.490;2023-03-21T17:53:29;13.10;99.90
14521;DHT22;7347;50.844;4.490;2023-03-21T17:55:56;13.10;99.90
14521;DHT22;7347;50.844;4.490;2023-03-21T17:58:24;13.10;99.90
14521;DHT22;7347;50.844;4.490;2023-03-21T18:00:51;13.10;99.90
14521;DHT22;7347;50.844;4.490;2023-03-21T18:03:18;13.10;99.90
14521;DHT22;7347;50.844;4.490;2023-03-21T18:05:45;13.10;99.90
14521;DHT22;7347;50.844;4.490;2023-03-21T18:08:12;13.10;99.90
14521;DHT22;7347;50.844;4.490;2023-03-21T18:10:39;13.10;99.90
14521;DHT22;7347;50.844;4.490;2023-03-21T18:13:07;13.10;99.90
14521;DHT22;7347;50.844;4.490;2023-03-21T18:15:35;13.10;99.90
14521;DHT22;7347;50.844;4.490;2023-03-21T18:18:02;13.10;99.90
14521;DHT22;7347;50.844;4.490;2023-03-21T18:20:29;13.00;99.90
14521;DHT22;7347;50.844;4.490;2023-03-21T18:22:56;13.00;99.90
14521;DHT22;7347;50.844;4.490;2023-03-21T18:25:22;13.00;99.90
14521;DHT22;7347;50.844;4.490;2023-03-21T18:27:49;13.10;99.90
14521;DHT22;7347;50.844;4.490;2023-03-21T18:30:18;13.10;99.90
14521;DHT22;7347;50.844;4.490;2023-03-21T18:32:46;13.10;99.90
14521;DHT22;7347;50.844;4.490;2023-03-21T18:35:15;13.10;99.90
14521;DHT22;7347;50.844;4.490;2023-03-21T18:37:42;13.10;99.90
14521;DHT22;7347;50.844;4.490;2023-03-21T18:40:10;13.10;99.90
14521;DHT22;7347;50.844;4.490;2023-03-21T18:42:39;13.10;99.90
14521;DHT22;7347;50.844;4.490;2023-03-21T18:45:08;13.00;99.90
14521;DHT22;7347;50.844;4.490;2023-03-21T18:47:36;13.00;99.90
14521;DHT22;7347;50.844;4.490;2023-03-21T18:50:05;13.00;99.90
14521;DHT22;7347;50.844;4.490;2023-03-21T18:52:33;13.00;99.90
14521;DHT22;7347;50.844;4.490;2023-03-21T18:55:00;12.90;99.90
14521;DHT22;7347;50.844;4.490;2023-03-21T18:57:28;13.00;99.90
14521;DHT22;7347;50.844;4.490;2023-03-21T18:59:55;13.00;99.90
14521;DHT22;7347;50.844;4.490;2023-03-21T19:02:22;12.90;99.90
14521;DHT22;7347;50.844;4.490;2023-03-21T19:04:49;13.00;99.90
14521;DHT22;7347;50.844;4.490;2023-03-21T19:07:17;13.00;99.90
14521;DHT22;7347;50.844;4.490;2023-03-21T19:09:44;13.00;99.90
14521;DHT22;7347;50.844;4.490;2023-03-21T19:12:10;13.00;99.90
14521;DHT22;7347;50.844;4.490;2023-03-21T19:14:37;12.90;99.90
14521;DHT22;7347;50.844;4.490;2023-03-21T19:17:05;13.00;99.90
14521;DHT22;7347;50.844;4.490;2023-03-21T19:19:32;13.10;99.90
14521;DHT22;7347;50.844;4.490;2023-03-21T19:21:59;13.10;99.90
14521;DHT22;7347;50.844;4.490;2023-03-21T19:24:27;13.10;99.90
14521;DHT22;7347;50.844;4.490;2023-03-21T19:26:54;13.10;99.90
14521;DHT22;7347;50.844;4.490;2023-03-21T19:29:21;13.10;99.90
14521;DHT22;7347;50.844;4.490;2023-03-21T19:31:48;13.10;99.90
14521;DHT22;7347;50.844;4.490;2023-03-21T19:34:16;13.10;99.90
14521;DHT22;7347;50.844;4.490;2023-03-21T19:36:43;13.10;99.90
14521;DHT22;7347;50.844;4.490;2023-03-21T19:39:10;13.10;99.90
14521;DHT22;7347;50.844;4.490;2023-03-21T19:41:39;13.10;99.90
14521;DHT22;7347;50.844;4.490;2023-03-21T19:44:05;13.10;99.90
14521;DHT22;7347;50.844;4.490;2023-03-21T19:46:32;13.20;99.90
14521;DHT22;7347;50.844;4.490;2023-03-21T19:48:59;13.20;99.90
14521;DHT22;7347;50.844;4.490;2023-03-21T19:51:30;13.20;99.90
14521;DHT22;7347;50.844;4.490;2023-03-21T19:53:57;13.20;99.90
14521;DHT22;7347;50.844;4.490;2023-03-21T19:56:23;13.20;99.90
14521;DHT22;7347;50.844;4.490;2023-03-21T19:58:52;13.20;99.90
14521;DHT22;7347;50.844;4.490;2023-03-21T20:01:19;13.30;99.90
14521;DHT22;7347;50.844;4.490;2023-03-21T20:03:46;13.20;99.90
14521;DHT22;7347;50.844;4.490;2023-03-21T20:06:13;13.20;99.90
14521;DHT22;7347;50.844;4.490;2023-03-21T20:08:40;13.20;99.90
14521;DHT22;7347;50.844;4.490;2023-03-21T20:11:07;13.20;99.90
14521;DHT22;7347;50.844;4.490;2023-03-21T20:13:34;13.20;99.90
14521;DHT22;7347;50.844;4.490;2023-03-21T20:16:02;13.20;99.90
14521;DHT22;7347;50.844;4.490;2023-03-21T20:18:29;13.20;99.90
14521;DHT22;7347;50.844;4.490;2023-03-21T20:20:58;13.20;99.90
14521;DHT22;7347;50.844;4.490;2023-03-21T20:23:24;13.30;99.90
14521;DHT22;7347;50.844;4.490;2023-03-21T20:25:51;13.30;99.90
14521;DHT22;7347;50.844;4.490;2023-03-21T20:28:18;13.40;99.90
14521;DHT22;7347;50.844;4.490;2023-03-21T20:30:46;13.40;99.90
14521;DHT22;7347;50.844;4.490;2023-03-21T20:33:15;13.30;99.90
14521;DHT22;7347;50.844;4.490;2023-03-21T20:35:42;13.20;99.90
14521;DHT22;7347;50.844;4.490;2023-03-21T20:38:09;13.10;99.90
14521;DHT22;7347;50.844;4.490;2023-03-21T20:40:38;13.00;99.90
14521;DHT22;7347;50.844;4.490;2023-03-21T20:43:05;12.90;99.90
14521;DHT22;7347;50.844;4.490;2023-03-21T20:45:32;12.90;99.90
14521;DHT22;7347;50.844;4.490;2023-03-21T20:47:59;12.90;99.90
14521;DHT22;7347;50.844;4.490;2023-03-21T20:50:28;12.80;99.90
14521;DHT22;7347;50.844;4.490;2023-03-21T20:52:57;12.80;99.90
14521;DHT22;7347;50.844;4.490;2023-03-21T20:55:24;12.80;99.90
14521;DHT22;7347;50.844;4.490;2023-03-21T20:57:52;12.80;99.90
14521;DHT22;7347;50.844;4.490;2023-03-21T21:00:19;12.80;99.90
14521;DHT22;7347;50.844;4.490;2023-03-21T21:02:48;12.80;99.90
14521;DHT22;7347;50.844;4.490;2023-03-21T21:05:15;12.80;99.90
14521;DHT22;7347;50.844;4.490;2023-03-21T21:07:45;12.80;99.90
14521;DHT22;7347;50.844;4.490;2023-03-21T21:10:15;12.80;99.90
14521;DHT22;7347;50.844;4.490;2023-03-21T21:12:43;12.80;99.90
14521;DHT22;7347;50.844;4.490;2023-03-21T21:15:11;12.90;99.90
14521;DHT22;7347;50.844;4.490;2023-03-21T21:17:40;12.90;99.90
14521;DHT22;7347;50.844;4.490;2023-03-21T21:20:08;12.90;99.90
14521;DHT22;7347;50.844;4.490;2023-03-21T21:22:41;12.90;99.90
14521;DHT22;7347;50.844;4.490;2023-03-21T21:25:10;12.90;99.90
14521;DHT22;7347;50.844;4.490;2023-03-21T21:27:37;12.80;99.90
14521;DHT22;7347;50.844;4.490;2023-03-21T21:30:05;12.70;99.90
14521;DHT22;7347;50.844;4.490;2023-03-21T21:32:32;12.70;99.90
